createdAt,value
2023-05-18T00:01:55.609Z,6.40
2023-05-18T00:04:26.266Z,6.10
2023-05-18T00:06:58.818Z,6.20
2023-05-18T00:09:27.016Z,5.20
2023-05-18T00:11:55.705Z,6.60
2023-05-18T00:14:23.955Z,5.30
2023-05-18T00:16:54.562Z,5.40
2023-05-18T00:19:24.464Z,4.70
2023-05-18T00:21:52.865Z,6.30
2023-05-18T00:24:20.868Z,6.50
2023-05-18T00:26:49.642Z,5.90
2023-05-18T00:29:18.640Z,6.60
2023-05-18T00:31:48.433Z,6.40
2023-05-18T00:34:17.338Z,6.70
2023-05-18T00:36:45.326Z,6.60
2023-05-18T00:39:13.379Z,8.80
2023-05-18T00:41:41.460Z,7.70
2023-05-18T00:44:10.288Z,5.40
2023-05-18T00:46:38.796Z,7.50
2023-05-18T00:49:07.346Z,5.80
2023-05-18T00:51:35.644Z,5.70
2023-05-18T00:54:04.725Z,5.50
2023-05-18T00:56:35.919Z,5.80
2023-05-18T00:59:04.890Z,5.70
2023-05-18T01:01:43.908Z,4.50
2023-05-18T01:04:16.356Z,5.30
2023-05-18T01:06:46.601Z,6.40
2023-05-18T01:09:16.484Z,5.50
2023-05-18T01:12:31.534Z,7.60
2023-05-18T01:15:10.840Z,5.20
2023-05-18T01:18:15.082Z,5.10
2023-05-18T01:21:33.909Z,6.80
2023-05-18T01:24:26.307Z,4.90
2023-05-18T01:27:00.464Z,5.30
2023-05-18T01:29:31.243Z,5.90
2023-05-18T01:31:59.314Z,6.70
2023-05-18T01:34:29.473Z,4.50
2023-05-18T01:36:58.353Z,7.00
2023-05-18T01:39:26.505Z,5.90
2023-05-18T01:42:04.299Z,5.10
2023-05-18T01:44:53.873Z,6.20
2023-05-18T01:47:25.205Z,7.20
2023-05-18T01:50:13.206Z,7.00
2023-05-18T01:52:57.874Z,5.50
2023-05-18T01:55:31.192Z,7.30
2023-05-18T01:58:02.392Z,6.30
2023-05-18T02:00:31.023Z,6.60
2023-05-18T02:03:00.182Z,7.40
2023-05-18T02:05:29.050Z,7.00
2023-05-18T02:07:58.448Z,5.40
2023-05-18T02:10:26.728Z,7.40
2023-05-18T02:12:54.795Z,6.40
2023-05-18T02:15:22.917Z,7.40
2023-05-18T02:17:51.160Z,6.50
2023-05-18T02:20:19.577Z,5.10
2023-05-18T02:22:47.694Z,6.20
2023-05-18T02:25:17.126Z,6.20
2023-05-18T02:27:45.166Z,6.60
2023-05-18T02:30:16.290Z,6.90
2023-05-18T02:32:47.350Z,6.40
2023-05-18T02:35:18.031Z,4.50
2023-05-18T02:37:47.734Z,6.00
2023-05-18T02:40:16.468Z,5.70
2023-05-18T02:42:44.894Z,4.80
2023-05-18T02:45:12.828Z,4.70
2023-05-18T02:47:44.162Z,6.50
2023-05-18T02:50:12.755Z,6.00
2023-05-18T02:52:41.902Z,8.60
2023-05-18T02:55:13.921Z,6.30
2023-05-18T02:57:57.369Z,5.70
2023-05-18T03:00:35.478Z,4.30
2023-05-18T03:03:04.498Z,4.70
2023-05-18T03:05:32.884Z,7.40
2023-05-18T03:08:02.634Z,6.80
2023-05-18T03:10:31.113Z,6.00
2023-05-18T03:12:59.358Z,6.20
2023-05-18T03:15:27.552Z,7.00
2023-05-18T03:17:56.310Z,5.10
2023-05-18T03:20:24.548Z,6.10
2023-05-18T03:22:52.831Z,7.40
2023-05-18T03:25:21.227Z,7.00
2023-05-18T03:27:50.192Z,5.20
2023-05-18T03:30:20.062Z,5.20
2023-05-18T03:32:48.496Z,7.30
2023-05-18T03:35:17.381Z,9.90
2023-05-18T03:37:45.762Z,7.40
2023-05-18T03:40:16.481Z,8.00
2023-05-18T03:42:45.639Z,5.40
2023-05-18T03:45:14.240Z,6.10
2023-05-18T03:47:43.617Z,6.00
2023-05-18T03:50:11.972Z,4.10
2023-05-18T03:52:41.685Z,5.60
2023-05-18T03:55:11.686Z,5.00
2023-05-18T03:57:39.796Z,7.40
2023-05-18T04:00:11.872Z,7.30
2023-05-18T04:02:45.383Z,6.50
2023-05-18T04:05:14.584Z,6.30
2023-05-18T04:07:46.782Z,5.30
2023-05-18T04:10:15.085Z,4.40
2023-05-18T04:12:44.366Z,5.40
2023-05-18T04:15:15.130Z,4.20
2023-05-18T04:17:45.968Z,3.00
2023-05-18T04:20:14.961Z,5.70
2023-05-18T04:22:46.778Z,4.40
2023-05-18T04:25:16.489Z,4.70
2023-05-18T04:27:51.210Z,3.30
2023-05-18T04:30:22.372Z,4.10
2023-05-18T04:32:51.833Z,3.50
2023-05-18T04:42:45.748Z,5.30
2023-05-18T04:45:26.386Z,3.90
2023-05-18T04:47:56.702Z,3.70
2023-05-18T04:50:24.946Z,6.10
2023-05-18T04:52:58.310Z,8.10
2023-05-18T04:55:28.720Z,6.60
2023-05-18T04:58:00.839Z,8.20
2023-05-18T05:00:30.079Z,11.40
2023-05-18T05:02:59.360Z,12.90
2023-05-18T05:05:30.396Z,15.50
2023-05-18T05:07:59.189Z,16.00
2023-05-18T05:10:28.833Z,15.40
2023-05-18T05:12:57.491Z,13.50
2023-05-18T05:15:26.220Z,17.20
2023-05-18T05:17:56.114Z,15.00
2023-05-18T05:20:25.154Z,18.30
2023-05-18T05:22:54.216Z,16.80
2023-05-18T05:25:25.348Z,12.80
2023-05-18T05:27:53.929Z,10.80
2023-05-18T05:30:24.568Z,17.40
2023-05-18T05:32:53.512Z,17.40
2023-05-18T05:35:21.859Z,18.10
2023-05-18T05:37:50.286Z,16.10
2023-05-18T05:40:18.948Z,10.20
2023-05-18T05:42:48.191Z,12.40
2023-05-18T05:45:16.558Z,10.50
2023-05-18T05:47:51.135Z,13.80
2023-05-18T05:50:21.808Z,9.70
2023-05-18T05:52:51.827Z,8.40
2023-05-18T05:55:20.478Z,12.10
2023-05-18T05:57:48.741Z,10.00
2023-05-18T06:00:18.027Z,10.50
2023-05-18T06:02:49.524Z,12.10
2023-05-18T06:05:24.980Z,8.20
2023-05-18T06:07:55.719Z,8.20
2023-05-18T06:10:25.169Z,7.80
2023-05-18T06:12:55.652Z,8.20
2023-05-18T06:15:30.054Z,8.50
2023-05-18T06:17:59.214Z,7.50
2023-05-18T06:20:28.085Z,6.40
2023-05-18T06:22:57.681Z,7.20
2023-05-18T06:25:40.489Z,9.90
2023-05-18T06:28:13.621Z,8.40
2023-05-18T06:30:54.339Z,6.30
2023-05-18T06:33:31.455Z,5.40
2023-05-18T06:35:59.706Z,4.80
2023-05-18T06:38:28.476Z,6.00
2023-05-18T06:40:56.783Z,5.80
2023-05-18T06:43:28.844Z,5.60
2023-05-18T06:46:25.131Z,5.20
2023-05-18T06:49:00.216Z,6.00
2023-05-18T06:51:29.719Z,5.70
2023-05-18T06:54:00.877Z,5.30
2023-05-18T06:56:30.978Z,6.30
2023-05-18T06:59:00.352Z,7.50
2023-05-18T07:01:30.445Z,9.40
2023-05-18T07:04:02.787Z,7.80
2023-05-18T07:06:31.490Z,8.30
2023-05-18T07:09:00.171Z,9.80
2023-05-18T07:11:29.672Z,9.50
2023-05-18T07:13:58.132Z,8.30
2023-05-18T07:16:28.217Z,9.50
2023-05-18T07:18:59.258Z,11.90
2023-05-18T07:21:27.675Z,6.10
2023-05-18T07:23:56.424Z,9.60
2023-05-18T07:26:24.853Z,11.80
2023-05-18T07:28:53.169Z,7.90
2023-05-18T07:31:22.425Z,8.80
2023-05-18T07:33:51.028Z,6.30
2023-05-18T07:36:19.170Z,9.90
2023-05-18T07:38:47.757Z,8.80
2023-05-18T07:41:16.043Z,10.30
2023-05-18T07:43:44.346Z,7.30
2023-05-18T07:46:12.635Z,6.30
2023-05-18T07:48:41.340Z,5.40
2023-05-18T07:51:09.964Z,6.60
2023-05-18T07:53:41.640Z,6.60
2023-05-18T07:56:10.036Z,5.80
2023-05-18T07:58:38.479Z,6.70
2023-05-18T08:01:06.988Z,5.60
2023-05-18T08:03:35.245Z,6.60
2023-05-18T08:06:04.028Z,8.60
2023-05-18T08:08:32.507Z,5.70
2023-05-18T08:11:00.578Z,8.60
2023-05-18T08:13:28.773Z,6.00
2023-05-18T08:16:10.525Z,5.50
2023-05-18T08:18:41.303Z,5.50
2023-05-18T08:21:10.398Z,4.90
2023-05-18T08:23:39.912Z,5.30
2023-05-18T08:26:09.823Z,5.40
2023-05-18T08:28:39.816Z,4.80
2023-05-18T08:31:08.265Z,5.10
2023-05-18T08:33:36.684Z,4.50
2023-05-18T08:36:05.465Z,5.80
2023-05-18T08:38:33.744Z,5.40
2023-05-18T08:41:55.198Z,4.90
2023-05-18T08:44:30.371Z,3.00
2023-05-18T08:47:00.469Z,6.70
2023-05-18T08:49:31.937Z,5.30
2023-05-18T08:52:05.110Z,4.80
2023-05-18T08:54:33.406Z,3.50
2023-05-18T08:57:09.700Z,4.70
2023-05-18T08:59:42.594Z,5.00
2023-05-18T09:02:11.847Z,3.10
2023-05-18T09:04:45.029Z,4.80
2023-05-18T09:07:14.794Z,6.60
2023-05-18T09:09:45.702Z,4.50
2023-05-18T09:12:15.445Z,3.90
2023-05-18T09:14:44.125Z,4.40
2023-05-18T09:17:12.461Z,5.40
2023-05-18T09:19:41.192Z,4.20
2023-05-18T09:22:09.384Z,5.50
2023-05-18T09:24:38.268Z,1.90
2023-05-18T09:27:07.391Z,3.30
2023-05-18T09:29:35.631Z,5.10
2023-05-18T09:32:08.809Z,3.40
2023-05-18T09:34:42.644Z,3.30
2023-05-18T09:37:11.328Z,2.60
2023-05-18T09:39:39.595Z,2.80
2023-05-18T09:42:08.076Z,2.90
2023-05-18T09:44:37.456Z,3.50
2023-05-18T09:47:10.863Z,4.00
2023-05-18T09:49:40.937Z,2.40
2023-05-18T09:52:12.254Z,2.70
2023-05-18T09:54:40.456Z,3.80
2023-05-18T09:57:11.471Z,4.00
2023-05-18T09:59:39.939Z,4.30
2023-05-18T10:02:12.418Z,3.00
2023-05-18T10:04:44.958Z,3.30
2023-05-18T10:07:16.515Z,3.50
2023-05-18T10:09:49.969Z,4.20
2023-05-18T10:12:23.596Z,1.90
2023-05-18T10:14:51.726Z,2.70
2023-05-18T10:17:21.656Z,2.90
2023-05-18T10:19:54.702Z,2.80
2023-05-18T10:22:27.835Z,2.90
2023-05-18T10:24:59.288Z,2.70
2023-05-18T10:27:30.222Z,1.50
2023-05-18T10:29:59.442Z,2.80
2023-05-18T10:32:31.293Z,2.80
2023-05-18T10:35:00.881Z,3.20
2023-05-18T10:37:33.815Z,1.70
2023-05-18T10:40:04.377Z,2.30
2023-05-18T10:42:33.798Z,1.80
2023-05-18T10:45:04.426Z,3.10
2023-05-18T10:47:36.326Z,2.10
2023-05-18T10:50:06.711Z,4.30
2023-05-18T10:52:38.053Z,2.60
2023-05-18T10:55:08.709Z,2.60
2023-05-18T10:57:49.567Z,2.80
2023-05-18T11:00:20.562Z,2.90
2023-05-18T11:02:51.258Z,2.90
2023-05-18T11:05:26.989Z,2.90
2023-05-18T11:08:05.704Z,1.90
2023-05-18T11:10:41.713Z,2.50
2023-05-18T11:13:14.061Z,3.00
2023-05-18T11:15:54.551Z,2.90
2023-05-18T11:18:44.645Z,1.20
2023-05-18T11:21:25.896Z,1.90
2023-05-18T11:24:33.398Z,2.10
2023-05-18T11:27:15.283Z,1.70
2023-05-18T11:29:47.840Z,1.80
2023-05-18T11:32:31.304Z,2.80
2023-05-18T11:35:00.496Z,2.10
2023-05-18T11:37:45.240Z,2.10
2023-05-18T11:40:54.266Z,1.50
2023-05-18T11:43:24.097Z,1.50
2023-05-18T11:45:59.451Z,2.20
2023-05-18T11:48:32.280Z,3.10
2023-05-18T11:51:00.506Z,2.40
2023-05-18T11:53:31.371Z,3.00
2023-05-18T11:56:01.764Z,3.10
2023-05-18T11:58:30.843Z,4.20
2023-05-18T12:01:00.264Z,3.40
2023-05-18T12:03:32.258Z,1.30
2023-05-18T12:06:00.998Z,1.60
2023-05-18T12:08:29.986Z,3.10
2023-05-18T12:10:59.416Z,1.30
2023-05-18T12:13:28.277Z,1.40
2023-05-18T12:15:58.987Z,1.10
2023-05-18T12:18:30.309Z,1.10
2023-05-18T12:20:58.539Z,1.50
2023-05-18T12:23:38.614Z,1.60
2023-05-18T12:26:07.554Z,1.60
2023-05-18T12:28:36.785Z,2.70
2023-05-18T12:31:07.605Z,1.30
2023-05-18T12:33:35.834Z,2.40
2023-05-18T12:36:04.243Z,1.40
2023-05-18T12:38:35.025Z,2.00
2023-05-18T12:41:03.188Z,4.70
2023-05-18T12:43:35.867Z,1.80
2023-05-18T12:46:06.344Z,2.30
2023-05-18T12:48:47.308Z,1.20
2023-05-18T12:51:20.365Z,1.90
2023-05-18T12:53:51.753Z,1.30
2023-05-18T12:56:26.271Z,1.20
2023-05-18T12:59:04.666Z,1.30
2023-05-18T13:01:44.064Z,1.30
2023-05-18T13:04:13.754Z,1.80
2023-05-18T13:06:42.748Z,1.40
2023-05-18T13:09:16.875Z,1.60
2023-05-18T13:12:03.655Z,1.40
2023-05-18T13:14:38.896Z,1.30
2023-05-18T13:17:07.521Z,1.70
2023-05-18T13:19:36.949Z,1.40
2023-05-18T13:22:08.435Z,1.60
2023-05-18T13:24:36.977Z,1.30
2023-05-18T13:27:05.203Z,1.30
2023-05-18T13:29:34.716Z,1.60
2023-05-18T13:32:03.176Z,1.20
2023-05-18T13:34:32.657Z,2.50
2023-05-18T13:37:01.341Z,1.70
2023-05-18T13:39:29.763Z,3.00
2023-05-18T13:41:59.849Z,1.00
2023-05-18T13:44:28.463Z,1.40
2023-05-18T13:46:57.332Z,1.50
2023-05-18T13:49:26.037Z,1.10
2023-05-18T13:51:54.169Z,1.80
2023-05-18T13:54:22.231Z,3.30
2023-05-18T13:56:53.040Z,1.70
2023-05-18T13:59:22.991Z,2.00
2023-05-18T14:01:51.213Z,1.80
2023-05-18T14:04:19.578Z,2.00
2023-05-18T14:06:47.611Z,3.20
2023-05-18T14:09:15.790Z,3.20
2023-05-18T14:11:43.898Z,2.30
2023-05-18T14:14:11.984Z,1.30
2023-05-18T14:16:40.176Z,2.40
2023-05-18T14:19:08.510Z,2.30
2023-05-18T14:21:36.561Z,2.20
2023-05-18T14:24:07.699Z,2.50
2023-05-18T14:26:37.435Z,2.00
2023-05-18T14:29:05.690Z,1.30
2023-05-18T14:31:35.463Z,2.10
2023-05-18T14:34:03.720Z,1.70
2023-05-18T14:36:34.509Z,4.20
2023-05-18T14:39:02.999Z,2.00
2023-05-18T14:41:32.090Z,2.20
2023-05-18T14:44:01.413Z,4.10
2023-05-18T14:46:31.587Z,2.20
2023-05-18T14:49:00.300Z,3.80
2023-05-18T14:51:28.886Z,2.70
2023-05-18T14:53:57.716Z,1.90
2023-05-18T14:56:27.279Z,1.70
2023-05-18T14:58:55.884Z,3.10
2023-05-18T15:01:24.471Z,1.80
2023-05-18T15:03:53.106Z,1.10
2023-05-18T15:06:21.901Z,1.40
2023-05-18T15:08:50.098Z,2.20
2023-05-18T15:11:18.483Z,2.40
2023-05-18T15:13:47.674Z,1.60
2023-05-18T15:16:19.867Z,1.30
2023-05-18T15:18:48.347Z,2.00
2023-05-18T15:21:16.809Z,1.80
2023-05-18T15:23:45.299Z,1.90
2023-05-18T15:26:13.984Z,1.60
2023-05-18T15:28:45.064Z,1.60
2023-05-18T15:31:13.417Z,2.00
2023-05-18T15:33:43.893Z,1.40
2023-05-18T15:36:12.048Z,2.30
2023-05-18T15:38:40.475Z,1.60
2023-05-18T15:41:08.597Z,1.50
2023-05-18T15:43:37.862Z,2.10
2023-05-18T15:46:06.754Z,2.00
2023-05-18T15:48:35.134Z,2.40
2023-05-18T15:51:03.695Z,3.30
2023-05-18T15:53:32.087Z,2.80
2023-05-18T15:56:00.698Z,1.70
2023-05-18T15:58:29.152Z,2.20
2023-05-18T16:00:57.891Z,2.90
2023-05-18T16:03:26.660Z,1.40
2023-05-18T16:05:55.114Z,1.30
2023-05-18T16:08:23.676Z,2.30
2023-05-18T16:10:51.935Z,1.10
2023-05-18T16:13:22.912Z,1.40
2023-05-18T16:15:52.015Z,2.20
2023-05-18T16:18:20.637Z,2.10
2023-05-18T16:20:48.871Z,1.50
2023-05-18T16:23:17.152Z,1.40
2023-05-18T16:25:45.729Z,1.70
2023-05-18T16:28:14.114Z,1.80
2023-05-18T16:30:42.625Z,1.50
2023-05-18T16:33:11.334Z,1.80
2023-05-18T16:35:40.022Z,1.90
2023-05-18T16:38:08.247Z,1.30
2023-05-18T16:40:36.365Z,2.80
2023-05-18T16:43:04.595Z,1.60
2023-05-18T16:45:33.860Z,2.20
2023-05-18T16:48:03.890Z,1.90
2023-05-18T16:50:33.659Z,1.80
2023-05-18T16:53:02.541Z,1.40
2023-05-18T16:55:31.324Z,3.90
2023-05-18T16:58:01.590Z,2.70
2023-05-18T17:00:31.472Z,2.90
2023-05-18T17:02:59.979Z,2.80
2023-05-18T17:05:28.475Z,2.00
2023-05-18T17:07:56.772Z,1.70
2023-05-18T17:10:25.151Z,2.10
2023-05-18T17:12:53.339Z,2.60
2023-05-18T17:15:22.471Z,2.00
2023-05-18T17:17:50.597Z,2.40
2023-05-18T17:20:19.009Z,2.80
2023-05-18T17:22:47.355Z,1.80
2023-05-18T17:25:15.502Z,1.20
2023-05-18T17:27:44.116Z,2.00
2023-05-18T17:30:12.651Z,1.90
2023-05-18T17:32:41.344Z,2.10
2023-05-18T17:35:12.423Z,2.70
2023-05-18T17:37:43.369Z,2.90
2023-05-18T17:40:12.718Z,2.30
2023-05-18T17:42:40.855Z,2.40
2023-05-18T17:45:10.862Z,4.20
2023-05-18T17:47:39.386Z,4.00
2023-05-18T17:50:08.545Z,5.40
2023-05-18T17:52:36.818Z,5.90
2023-05-18T17:55:06.874Z,6.60
2023-05-18T17:57:36.211Z,8.90
2023-05-18T18:00:07.220Z,8.30
2023-05-18T18:02:44.096Z,7.20
2023-05-18T18:05:13.768Z,7.30
2023-05-18T18:07:42.242Z,6.10
2023-05-18T18:10:11.432Z,6.50
2023-05-18T18:12:39.923Z,4.60
2023-05-18T18:15:09.629Z,3.80
2023-05-18T18:17:38.253Z,4.30
2023-05-18T18:20:07.773Z,4.50
2023-05-18T18:22:36.415Z,4.00
2023-05-18T18:25:05.407Z,5.70
2023-05-18T18:27:34.019Z,5.20
2023-05-18T18:30:02.327Z,4.80
2023-05-18T18:32:30.788Z,4.40
2023-05-18T18:34:59.710Z,4.90
2023-05-18T18:37:28.538Z,4.90
2023-05-18T18:39:56.790Z,6.50
2023-05-18T18:42:25.192Z,4.60
2023-05-18T18:44:56.944Z,6.10
2023-05-18T18:47:26.371Z,3.50
2023-05-18T18:49:54.741Z,6.20
2023-05-18T18:52:23.103Z,6.70
2023-05-18T18:54:51.183Z,5.20
2023-05-18T18:57:19.271Z,3.30
2023-05-18T18:59:47.844Z,3.20
2023-05-18T19:02:15.898Z,4.40
2023-05-18T19:04:44.216Z,2.90
2023-05-18T19:07:12.583Z,3.90
2023-05-18T19:09:41.674Z,3.70
2023-05-18T19:12:10.341Z,5.70
2023-05-18T19:14:38.844Z,5.10
2023-05-18T19:17:07.681Z,3.40
2023-05-18T19:19:37.642Z,3.60
2023-05-18T19:22:06.588Z,3.80
2023-05-18T19:24:35.216Z,4.20
2023-05-18T19:27:03.589Z,3.50
2023-05-18T19:29:32.517Z,5.40
2023-05-18T19:32:00.997Z,5.20
2023-05-18T19:34:29.341Z,5.10
2023-05-18T19:36:57.766Z,4.30
2023-05-18T19:39:27.229Z,4.00
2023-05-18T19:41:55.971Z,3.50
2023-05-18T19:44:24.432Z,4.10
2023-05-18T19:46:52.977Z,4.50
2023-05-18T19:49:21.290Z,4.10
2023-05-18T19:51:49.439Z,6.00
2023-05-18T19:54:17.627Z,5.40
2023-05-18T19:56:45.883Z,5.20
2023-05-18T19:59:14.072Z,5.00
2023-05-18T20:01:42.490Z,6.10
2023-05-18T20:04:10.813Z,6.10
2023-05-18T20:06:40.900Z,6.10
2023-05-18T20:09:10.283Z,6.80
2023-05-18T20:11:38.508Z,6.00
2023-05-18T20:14:06.997Z,6.90
2023-05-18T20:16:39.208Z,6.10
2023-05-18T20:19:08.696Z,6.00
2023-05-18T20:21:36.661Z,6.40
2023-05-18T20:24:05.031Z,5.50
2023-05-18T20:26:33.179Z,5.90
2023-05-18T20:29:01.576Z,6.30
2023-05-18T20:31:30.035Z,5.60
2023-05-18T20:33:58.215Z,7.30
2023-05-18T20:36:26.807Z,6.10
2023-05-18T20:38:55.180Z,4.80
2023-05-18T20:41:23.541Z,4.50
2023-05-18T20:43:52.083Z,4.50
2023-05-18T20:46:24.985Z,6.00
2023-05-18T20:48:55.498Z,7.00
2023-05-18T20:51:24.831Z,5.50
2023-05-18T20:53:53.158Z,6.30
2023-05-18T20:56:22.152Z,5.50
2023-05-18T20:58:50.499Z,4.30
2023-05-18T21:01:19.097Z,4.30
2023-05-18T21:03:47.996Z,5.10
2023-05-18T21:06:16.140Z,5.80
2023-05-18T21:08:45.483Z,5.30
2023-05-18T21:11:13.942Z,4.20
2023-05-18T21:13:42.231Z,6.30
2023-05-18T21:16:11.172Z,5.50
2023-05-18T21:18:39.711Z,6.00
2023-05-18T21:21:08.156Z,4.90
2023-05-18T21:23:36.291Z,4.10
2023-05-18T21:26:04.624Z,4.70
2023-05-18T21:28:32.729Z,5.30
2023-05-18T21:31:01.491Z,4.10
2023-05-18T21:33:29.846Z,5.50
2023-05-18T21:35:58.837Z,6.30
2023-05-18T21:38:27.764Z,6.00
2023-05-18T21:40:56.963Z,4.60
2023-05-18T21:43:25.343Z,5.70
2023-05-18T21:45:53.576Z,4.70
2023-05-18T21:48:21.618Z,4.60
2023-05-18T21:50:49.687Z,5.60
2023-05-18T21:53:18.466Z,5.10
2023-05-18T21:55:46.615Z,4.90
2023-05-18T21:58:14.897Z,5.00
2023-05-18T22:00:42.962Z,6.30
2023-05-18T22:03:11.145Z,6.40
2023-05-18T22:05:40.850Z,5.20
2023-05-18T22:08:09.229Z,4.90
2023-05-18T22:10:37.230Z,4.80
2023-05-18T22:13:05.276Z,5.10
2023-05-18T22:15:36.314Z,5.30
2023-05-18T22:18:04.864Z,5.60
2023-05-18T22:20:33.650Z,5.20
2023-05-18T22:23:03.808Z,4.80
2023-05-18T22:25:31.825Z,4.90
2023-05-18T22:27:59.951Z,5.60
2023-05-18T22:30:28.765Z,6.40
2023-05-18T22:32:58.070Z,5.80
2023-05-18T22:35:26.205Z,6.10
2023-05-18T22:37:54.416Z,6.50
2023-05-18T22:40:23.536Z,6.40
2023-05-18T22:42:53.225Z,6.00
2023-05-18T22:45:22.110Z,5.60
2023-05-18T22:47:51.394Z,6.10
2023-05-18T22:50:19.654Z,7.20
2023-05-18T22:52:47.829Z,5.50
2023-05-18T22:55:16.004Z,6.20
2023-05-18T22:57:45.454Z,6.10
2023-05-18T23:00:15.811Z,5.70
2023-05-18T23:02:44.072Z,4.90
2023-05-18T23:05:12.311Z,9.10
2023-05-18T23:07:42.095Z,7.00
2023-05-18T23:10:12.039Z,6.10
2023-05-18T23:12:40.521Z,5.10
2023-05-18T23:15:09.733Z,6.30
2023-05-18T23:17:40.566Z,4.10
2023-05-18T23:20:11.696Z,5.00
2023-05-18T23:22:40.267Z,5.70
2023-05-18T23:25:10.123Z,5.10
2023-05-18T23:27:38.484Z,5.00
2023-05-18T23:30:07.920Z,4.20
2023-05-18T23:32:37.006Z,6.00
2023-05-18T23:35:06.905Z,5.30
2023-05-18T23:37:42.159Z,4.50
2023-05-18T23:40:12.535Z,4.70
2023-05-18T23:42:41.697Z,5.60
2023-05-18T23:45:11.481Z,5.30
2023-05-18T23:47:41.089Z,4.00
2023-05-18T23:50:10.061Z,5.20
2023-05-18T23:52:40.654Z,4.20
2023-05-18T23:55:12.596Z,4.40
2023-05-18T23:57:41.841Z,4.80
